Aérodrome :
LOGIN :

S'inscrire | Disclaimer

   EN    FR    IT 

 










Légende :    VFR   VFR Marginal   IFR   IFR Intensif   IFR Très Intensif
Visi : 
Plafond : 
>= 8 km
>= 3000ft
5 à 8 km
1000 à 3000 ft
1500m à 5 km
500 à 1000 ft
800 à 1500m
200 à 500 ft
< 800m
< 200 ft
Symboles :   Orages  Brouillard  Fortes neiges  Fortes précipitations  Vent > 20 kt
SIGMETs :   Divers  Orages  Givrage  Turbulence  Onde Orograph.  Cendres Volcan.







- Altitude de l'aérodrome : 53 ft
- Code IATA : AGP


LEMG - Malaga

DERNIER METAR :
  • 181400Z 13010KT 9999 FEW020TCU 27/22 Q1015 NOSIG

METARs EXPIRÉS :
  • 181330Z 13009KT 080V170 9999 FEW025 28/22 Q1015 NOSIG
  • 181300Z 13010KT 9999 FEW025 27/21 Q1016 NOSIG
  • 181230Z 15009KT 9999 FEW025 27/21 Q1016 NOSIG
  • 181200Z 14009KT 110V170 9999 FEW025 27/21 Q1016 NOSIG
  • 181130Z 15009KT 120V180 9999 FEW025 28/21 Q1016 NOSIG

TAF TAF LEMG
Valide du 18 à 12h jusqu'au 19 à 12h UTC


181100Z 1812/1912 14008KT 9999 FEW025 TX29/1813Z TN21/1906Z
PROB30
TEMPO 1813/1819 SCT030CB
BECMG 1818/1821 VRB02KT
BECMG 1901/1904 28006KT
PROB30
TEMPO 1823/1907 4000 BR
BECMG 1908/1910 13008KT
Pas de NOTAMs connus pour ce terrain.



MET'MAP, la Météo Aéronautique d'un coup d'oeil ! - Copyright ORBIFLY Décembre 2007 - Disclaimer

ORBIFLY MET'MAP TEAM :

Programmation & Développement : Alexandra Zaïnal
Conception & Développement : Baudouin d'Aumeries
Co-Programmation & Développement : Marc-Olivier Méhu
Soutien technique & logistique : Manuel Goepfert

Contact : metmap@orbifly.com




SOURCES & CREDITS :

   NOAA